sensor_id;sensor_type;location;lat;lon;timestamp;pressure;altitude;pressure_sealevel;temperature;humidity
45864;BME280;31579;52.354;16.974;2022-10-20T00:00:39;503.4;;;-146.1;100.0
45864;BME280;31579;52.354;16.974;2022-10-20T00:01:41;470.8;;;-146.1;100.0
45864;BME280;31579;52.354;16.974;2022-10-20T00:02:45;502.7;;;-146.1;100.0
45864;BME280;31579;52.354;16.974;2022-10-20T00:03:50;505.3;;;-146.1;100.0
45864;BME280;31579;52.354;16.974;2022-10-20T00:04:53;503.6;;;-146.1;100.0
45864;BME280;31579;52.354;16.974;2022-10-20T00:07:01;476.4;;;-146.1;100.0
45864;BME280;31579;52.354;16.974;2022-10-20T00:08:03;434.6;;;-146.1;100.0
45864;BME280;31579;52.354;16.974;2022-10-20T00:09:06;505.3;;;-146.1;100.0
45864;BME280;31579;52.354;16.974;2022-10-20T00:10:10;517.1;;;-146.1;100.0
45864;BME280;31579;52.354;16.974;2022-10-20T00:11:15;513.4;;;-146.1;100.0
45864;BME280;31579;52.354;16.974;2022-10-20T00:12:18;508.2;;;-146.1;100.0
45864;BME280;31579;52.354;16.974;2022-10-20T00:13:23;503.8;;;-146.1;100.0
45864;BME280;31579;52.354;16.974;2022-10-20T00:14:26;501.2;;;-146.1;100.0
45864;BME280;31579;52.354;16.974;2022-10-20T00:15:29;472.9;;;-146.1;100.0
45864;BME280;31579;52.354;16.974;2022-10-20T00:16:35;497.9;;;-146.1;100.0
45864;BME280;31579;52.354;16.974;2022-10-20T00:17:37;475.3;;;-146.1;100.0
45864;BME280;31579;52.354;16.974;2022-10-20T00:18:41;502.5;;;-146.1;100.0
45864;BME280;31579;52.354;16.974;2022-10-20T00:19:47;508.2;;;-146.1;100.0
45864;BME280;31579;52.354;16.974;2022-10-20T00:20:50;510.3;;;-146.1;100.0
45864;BME280;31579;52.354;16.974;2022-10-20T00:21:53;515.0;;;-146.1;100.0
45864;BME280;31579;52.354;16.974;2022-10-20T00:22:57;520.3;;;-146.1;100.0
45864;BME280;31579;52.354;16.974;2022-10-20T00:24:02;504.4;;;-146.1;100.0
45864;BME280;31579;52.354;16.974;2022-10-20T00:25:05;505.3;;;-146.1;100.0
45864;BME280;31579;52.354;16.974;2022-10-20T00:26:11;539.9;;;-146.1;100.0
45864;BME280;31579;52.354;16.974;2022-10-20T00:27:12;546.8;;;-146.1;100.0
45864;BME280;31579;52.354;16.974;2022-10-20T00:28:15;524.4;;;-146.1;100.0
45864;BME280;31579;52.354;16.974;2022-10-20T00:29:19;548.4;;;-146.1;100.0
45864;BME280;31579;52.354;16.974;2022-10-20T00:30:23;528.7;;;-146.1;100.0
45864;BME280;31579;52.354;16.974;2022-10-20T00:31:27;553.3;;;-146.1;100.0
45864;BME280;31579;52.354;16.974;2022-10-20T00:32:31;555.0;;;-146.1;100.0
45864;BME280;31579;52.354;16.974;2022-10-20T00:33:35;554.0;;;-146.1;100.0
45864;BME280;31579;52.354;16.974;2022-10-20T00:34:38;532.4;;;-146.1;100.0
45864;BME280;31579;52.354;16.974;2022-10-20T00:35:41;533.2;;;-146.1;100.0
45864;BME280;31579;52.354;16.974;2022-10-20T00:36:45;562.2;;;-146.1;100.0
45864;BME280;31579;52.354;16.974;2022-10-20T00:37:48;546.1;;;-146.1;100.0
45864;BME280;31579;52.354;16.974;2022-10-20T00:38:58;572.2;;;-146.1;100.0
45864;BME280;31579;52.354;16.974;2022-10-20T00:39:56;576.8;;;-146.1;100.0
45864;BME280;31579;52.354;16.974;2022-10-20T00:41:03;650.0;;;-146.1;100.0
45864;BME280;31579;52.354;16.974;2022-10-20T00:42:09;596.1;;;-146.1;100.0
45864;BME280;31579;52.354;16.974;2022-10-20T00:43:12;600.6;;;-146.1;100.0
45864;BME280;31579;52.354;16.974;2022-10-20T00:45:20;625.6;;;-146.1;100.0
45864;BME280;31579;52.354;16.974;2022-10-20T00:46:29;638.7;;;-146.1;100.0
45864;BME280;31579;52.354;16.974;2022-10-20T00:48:30;659.2;;;-146.1;100.0
45864;BME280;31579;52.354;16.974;2022-10-20T00:49:34;671.0;;;-146.1;100.0
45864;BME280;31579;52.354;16.974;2022-10-20T00:50:40;682.4;;;-146.1;100.0
45864;BME280;31579;52.354;16.974;2022-10-20T00:51:42;689.8;;;-146.1;100.0
45864;BME280;31579;52.354;16.974;2022-10-20T00:52:46;699.7;;;-146.1;100.0
45864;BME280;31579;52.354;16.974;2022-10-20T00:53:51;708.6;;;-146.1;100.0
45864;BME280;31579;52.354;16.974;2022-10-20T00:54:54;716.5;;;-146.1;100.0
45864;BME280;31579;52.354;16.974;2022-10-20T00:55:57;708.4;;;-146.1;100.0
45864;BME280;31579;52.354;16.974;2022-10-20T00:57:02;731.9;;;-146.1;100.0
45864;BME280;31579;52.354;16.974;2022-10-20T00:58:05;737.3;;;-146.1;100.0
45864;BME280;31579;52.354;16.974;2022-10-20T00:59:10;741.7;;;-146.1;100.0
45864;BME280;31579;52.354;16.974;2022-10-20T01:00:14;744.9;;;-146.1;100.0
45864;BME280;31579;52.354;16.974;2022-10-20T01:01:17;749.1;;;-146.1;100.0
45864;BME280;31579;52.354;16.974;2022-10-20T01:02:20;739.1;;;-146.1;100.0
45864;BME280;31579;52.354;16.974;2022-10-20T01:03:27;745.8;;;-146.1;100.0
45864;BME280;31579;52.354;16.974;2022-10-20T01:04:29;767.5;;;-146.1;100.0
45864;BME280;31579;52.354;16.974;2022-10-20T01:05:31;772.2;;;-146.1;100.0
45864;BME280;31579;52.354;16.974;2022-10-20T01:06:35;774.2;;;-146.1;100.0
45864;BME280;31579;52.354;16.974;2022-10-20T01:07:38;762.0;;;-146.1;100.0
45864;BME280;31579;52.354;16.974;2022-10-20T01:08:42;780.5;;;-146.1;100.0
45864;BME280;31579;52.354;16.974;2022-10-20T01:09:45;768.9;;;-146.1;100.0
45864;BME280;31579;52.354;16.974;2022-10-20T01:11:02;786.5;;;-146.1;100.0
45864;BME280;31579;52.354;16.974;2022-10-20T01:12:00;789.0;;;-146.1;100.0
45864;BME280;31579;52.354;16.974;2022-10-20T01:12:59;791.2;;;-146.1;100.0
45864;BME280;31579;52.354;16.974;2022-10-20T01:15:11;784.4;;;-146.1;100.0
45864;BME280;31579;52.354;16.974;2022-10-20T01:28:01;868.8;;;-146.1;100.0
45864;BME280;31579;52.354;16.974;2022-10-20T01:31:21;879.5;;;-146.1;100.0
45864;BME280;31579;52.354;16.974;2022-10-20T01:38:42;914.6;;;-146.1;100.0
45864;BME280;31579;52.354;16.974;2022-10-20T01:39:50;910.7;;;-146.1;100.0
45864;BME280;31579;52.354;16.974;2022-10-20T01:41:53;907.1;;;-146.1;100.0
45864;BME280;31579;52.354;16.974;2022-10-20T01:42:57;904.4;;;-146.1;100.0
45864;BME280;31579;52.354;16.974;2022-10-20T01:44:01;900.2;;;-146.1;100.0
45864;BME280;31579;52.354;16.974;2022-10-20T01:45:04;883.5;;;-146.1;100.0
45864;BME280;31579;52.354;16.974;2022-10-20T01:46:08;900.5;;;-146.1;100.0
45864;BME280;31579;52.354;16.974;2022-10-20T01:47:11;887.0;;;-146.1;100.0
45864;BME280;31579;52.354;16.974;2022-10-20T01:48:16;902.0;;;-146.1;100.0
45864;BME280;31579;52.354;16.974;2022-10-20T01:49:19;900.4;;;-146.1;100.0
45864;BME280;31579;52.354;16.974;2022-10-20T01:50:23;898.1;;;-146.1;100.0
45864;BME280;31579;52.354;16.974;2022-10-20T01:51:26;881.1;;;-146.1;100.0
45864;BME280;31579;52.354;16.974;2022-10-20T01:52:30;898.4;;;-146.1;100.0
45864;BME280;31579;52.354;16.974;2022-10-20T01:53:34;898.8;;;-146.1;100.0
45864;BME280;31579;52.354;16.974;2022-10-20T01:54:37;882.9;;;-146.1;100.0
45864;BME280;31579;52.354;16.974;2022-10-20T01:55:40;886.2;;;-146.1;100.0
45864;BME280;31579;52.354;16.974;2022-10-20T01:56:50;903.7;;;-146.1;100.0
45864;BME280;31579;52.354;16.974;2022-10-20T02:01:04;894.9;;;-146.1;100.0
45864;BME280;31579;52.354;16.974;2022-10-20T02:04:08;876.3;;;-146.1;100.0
45864;BME280;31579;52.354;16.974;2022-10-20T02:07:27;858.5;;;-146.1;100.0
45864;BME280;31579;52.354;16.974;2022-10-20T02:09:33;855.1;;;-146.1;100.0
45864;BME280;31579;52.354;16.974;2022-10-20T02:10:38;859.8;;;-146.1;100.0
45864;BME280;31579;52.354;16.974;2022-10-20T02:12:40;868.5;;;-146.1;100.0
45864;BME280;31579;52.354;16.974;2022-10-20T02:13:44;871.5;;;-146.1;100.0
45864;BME280;31579;52.354;16.974;2022-10-20T02:14:47;871.3;;;-146.1;100.0
45864;BME280;31579;52.354;16.974;2022-10-20T02:15:51;868.2;;;-146.1;100.0
45864;BME280;31579;52.354;16.974;2022-10-20T02:16:56;864.6;;;-146.1;100.0
45864;BME280;31579;52.354;16.974;2022-10-20T02:17:59;860.9;;;-146.1;100.0
45864;BME280;31579;52.354;16.974;2022-10-20T02:19:00;869.3;;;-146.1;100.0
45864;BME280;31579;52.354;16.974;2022-10-20T02:20:05;848.9;;;-146.1;100.0
45864;BME280;31579;52.354;16.974;2022-10-20T02:21:07;844.8;;;-146.1;100.0
45864;BME280;31579;52.354;16.974;2022-10-20T02:22:11;844.8;;;-146.1;100.0
45864;BME280;31579;52.354;16.974;2022-10-20T02:23:14;859.0;;;-146.1;100.0
45864;BME280;31579;52.354;16.974;2022-10-20T02:24:18;852.6;;;-146.1;100.0
45864;BME280;31579;52.354;16.974;2022-10-20T02:25:21;829.6;;;-146.1;100.0
45864;BME280;31579;52.354;16.974;2022-10-20T02:26:24;826.2;;;-146.1;100.0
45864;BME280;31579;52.354;16.974;2022-10-20T02:27:29;828.9;;;-146.1;100.0
45864;BME280;31579;52.354;16.974;2022-10-20T02:28:32;832.6;;;-146.1;100.0
45864;BME280;31579;52.354;16.974;2022-10-20T02:29:36;834.6;;;-146.1;100.0
45864;BME280;31579;52.354;16.974;2022-10-20T02:30:37;837.4;;;-146.1;100.0
45864;BME280;31579;52.354;16.974;2022-10-20T02:31:41;837.5;;;-146.1;100.0
45864;BME280;31579;52.354;16.974;2022-10-20T02:32:44;835.3;;;-146.1;100.0
45864;BME280;31579;52.354;16.974;2022-10-20T02:33:47;843.4;;;-146.1;100.0
45864;BME280;31579;52.354;16.974;2022-10-20T02:34:50;819.0;;;-146.1;100.0
45864;BME280;31579;52.354;16.974;2022-10-20T02:35:55;814.4;;;-146.1;100.0
45864;BME280;31579;52.354;16.974;2022-10-20T02:36:57;811.4;;;-146.1;100.0
45864;BME280;31579;52.354;16.974;2022-10-20T02:38:01;820.9;;;-146.1;100.0
45864;BME280;31579;52.354;16.974;2022-10-20T02:39:03;795.4;;;-146.1;100.0
45864;BME280;31579;52.354;16.974;2022-10-20T02:40:06;790.8;;;-146.1;100.0
45864;BME280;31579;52.354;16.974;2022-10-20T02:41:09;789.0;;;-146.1;100.0
45864;BME280;31579;52.354;16.974;2022-10-20T02:42:12;787.8;;;-146.1;100.0
45864;BME280;31579;52.354;16.974;2022-10-20T02:43:15;787.1;;;-146.1;100.0
45864;BME280;31579;52.354;16.974;2022-10-20T02:44:18;786.0;;;-146.1;100.0
45864;BME280;31579;52.354;16.974;2022-10-20T02:45:21;785.0;;;-146.1;100.0
45864;BME280;31579;52.354;16.974;2022-10-20T02:46:24;784.7;;;-146.1;100.0
45864;BME280;31579;52.354;16.974;2022-10-20T02:47:27;784.3;;;-146.1;100.0
45864;BME280;31579;52.354;16.974;2022-10-20T02:48:30;784.6;;;-146.1;100.0
45864;BME280;31579;52.354;16.974;2022-10-20T02:49:33;784.2;;;-146.1;100.0
45864;BME280;31579;52.354;16.974;2022-10-20T02:50:37;782.2;;;-146.1;100.0
45864;BME280;31579;52.354;16.974;2022-10-20T02:51:40;781.0;;;-146.1;100.0
45864;BME280;31579;52.354;16.974;2022-10-20T02:52:43;778.2;;;-146.1;100.0
45864;BME280;31579;52.354;16.974;2022-10-20T02:53:47;783.7;;;-146.1;100.0
45864;BME280;31579;52.354;16.974;2022-10-20T02:54:51;770.1;;;-146.1;100.0
45864;BME280;31579;52.354;16.974;2022-10-20T02:55:54;740.9;;;-146.1;100.0
45864;BME280;31579;52.354;16.974;2022-10-20T02:56:58;752.2;;;-146.1;100.0
45864;BME280;31579;52.354;16.974;2022-10-20T02:58:00;719.6;;;-146.1;100.0
45864;BME280;31579;52.354;16.974;2022-10-20T02:59:04;738.8;;;-146.1;100.0
45864;BME280;31579;52.354;16.974;2022-10-20T03:00:09;757.5;;;-146.1;100.0
45864;BME280;31579;52.354;16.974;2022-10-20T03:01:11;733.8;;;-146.1;100.0
45864;BME280;31579;52.354;16.974;2022-10-20T03:02:14;730.9;;;-146.1;100.0
45864;BME280;31579;52.354;16.974;2022-10-20T03:03:17;725.7;;;-146.1;100.0
45864;BME280;31579;52.354;16.974;2022-10-20T03:04:19;743.1;;;-146.1;100.0
45864;BME280;31579;52.354;16.974;2022-10-20T03:05:23;755.3;;;-146.1;100.0
45864;BME280;31579;52.354;16.974;2022-10-20T03:06:26;728.7;;;-146.1;100.0
45864;BME280;31579;52.354;16.974;2022-10-20T03:07:30;736.8;;;-146.1;100.0
45864;BME280;31579;52.354;16.974;2022-10-20T03:08:33;708.7;;;-146.1;100.0
45864;BME280;31579;52.354;16.974;2022-10-20T03:09:36;703.2;;;-146.1;100.0
45864;BME280;31579;52.354;16.974;2022-10-20T03:10:39;701.2;;;-146.1;100.0
45864;BME280;31579;52.354;16.974;2022-10-20T03:11:43;715.1;;;-146.1;100.0
45864;BME280;31579;52.354;16.974;2022-10-20T03:12:47;707.0;;;-146.1;100.0
45864;BME280;31579;52.354;16.974;2022-10-20T03:14:04;730.2;;;-146.1;100.0
45864;BME280;31579;52.354;16.974;2022-10-20T03:15:07;671.4;;;-146.1;100.0
45864;BME280;31579;52.354;16.974;2022-10-20T03:16:10;670.8;;;-146.1;100.0
45864;BME280;31579;52.354;16.974;2022-10-20T03:17:13;678.8;;;-146.1;100.0
45864;BME280;31579;52.354;16.974;2022-10-20T03:18:16;687.8;;;-146.1;100.0
45864;BME280;31579;52.354;16.974;2022-10-20T03:19:20;696.1;;;-146.1;100.0
45864;BME280;31579;52.354;16.974;2022-10-20T03:20:24;724.2;;;-146.1;100.0
45864;BME280;31579;52.354;16.974;2022-10-20T03:21:27;707.8;;;-146.1;100.0
45864;BME280;31579;52.354;16.974;2022-10-20T03:22:30;710.8;;;-146.1;100.0
45864;BME280;31579;52.354;16.974;2022-10-20T03:23:33;716.0;;;-146.1;100.0
45864;BME280;31579;52.354;16.974;2022-10-20T03:24:37;739.4;;;-146.1;100.0
45864;BME280;31579;52.354;16.974;2022-10-20T03:25:41;739.7;;;-146.1;100.0
45864;BME280;31579;52.354;16.974;2022-10-20T03:26:45;738.3;;;-146.1;100.0
45864;BME280;31579;52.354;16.974;2022-10-20T03:27:48;718.8;;;-146.1;100.0
45864;BME280;31579;52.354;16.974;2022-10-20T03:28:52;743.4;;;-146.1;100.0
45864;BME280;31579;52.354;16.974;2022-10-20T03:29:57;749.4;;;-146.1;100.0
45864;BME280;31579;52.354;16.974;2022-10-20T03:30:59;719.5;;;-146.1;100.0
45864;BME280;31579;52.354;16.974;2022-10-20T03:32:02;741.6;;;-146.1;100.0
45864;BME280;31579;52.354;16.974;2022-10-20T03:33:05;753.2;;;-146.1;100.0
45864;BME280;31579;52.354;16.974;2022-10-20T03:34:09;777.4;;;-146.1;100.0
45864;BME280;31579;52.354;16.974;2022-10-20T03:35:12;759.0;;;-146.1;100.0
45864;BME280;31579;52.354;16.974;2022-10-20T03:36:16;778.8;;;-146.1;100.0
45864;BME280;31579;52.354;16.974;2022-10-20T03:37:20;778.3;;;-146.1;100.0
45864;BME280;31579;52.354;16.974;2022-10-20T03:38:24;778.4;;;-146.1;100.0
45864;BME280;31579;52.354;16.974;2022-10-20T03:39:28;780.4;;;-146.1;100.0
45864;BME280;31579;52.354;16.974;2022-10-20T03:40:32;784.8;;;-146.1;100.0
45864;BME280;31579;52.354;16.974;2022-10-20T03:41:35;771.1;;;-146.1;100.0
45864;BME280;31579;52.354;16.974;2022-10-20T03:42:39;799.4;;;-146.1;100.0
45864;BME280;31579;52.354;16.974;2022-10-20T03:43:43;809.1;;;-146.1;100.0
45864;BME280;31579;52.354;16.974;2022-10-20T03:44:46;796.0;;;-146.1;100.0
45864;BME280;31579;52.354;16.974;2022-10-20T03:45:59;824.9;;;-146.1;100.0
45864;BME280;31579;52.354;16.974;2022-10-20T03:46:54;833.2;;;-146.1;100.0
45864;BME280;31579;52.354;16.974;2022-10-20T03:47:58;840.8;;;-146.1;100.0
45864;BME280;31579;52.354;16.974;2022-10-20T03:49:00;814.0;;;-146.1;100.0
45864;BME280;31579;52.354;16.974;2022-10-20T03:50:03;839.0;;;-146.1;100.0
45864;BME280;31579;52.354;16.974;2022-10-20T03:51:06;850.0;;;-146.1;100.0
45864;BME280;31579;52.354;16.974;2022-10-20T03:52:09;855.9;;;-146.1;100.0
45864;BME280;31579;52.354;16.974;2022-10-20T03:53:13;860.8;;;-146.1;100.0
45864;BME280;31579;52.354;16.974;2022-10-20T03:54:17;880.1;;;-146.1;100.0
45864;BME280;31579;52.354;16.974;2022-10-20T03:55:20;857.8;;;-146.1;100.0
45864;BME280;31579;52.354;16.974;2022-10-20T03:56:23;855.8;;;-146.1;100.0
45864;BME280;31579;52.354;16.974;2022-10-20T03:57:26;856.1;;;-146.1;100.0
45864;BME280;31579;52.354;16.974;2022-10-20T03:58:29;855.6;;;-146.1;100.0
45864;BME280;31579;52.354;16.974;2022-10-20T03:59:32;855.3;;;-146.1;100.0
45864;BME280;31579;52.354;16.974;2022-10-20T04:00:35;854.6;;;-146.1;100.0
45864;BME280;31579;52.354;16.974;2022-10-20T04:01:38;852.0;;;-146.1;100.0
45864;BME280;31579;52.354;16.974;2022-10-20T04:02:43;849.5;;;-146.1;100.0
45864;BME280;31579;52.354;16.974;2022-10-20T04:03:44;845.3;;;-146.1;100.0
45864;BME280;31579;52.354;16.974;2022-10-20T04:04:47;841.2;;;-146.1;100.0
45864;BME280;31579;52.354;16.974;2022-10-20T04:05:50;836.2;;;-146.1;100.0
45864;BME280;31579;52.354;16.974;2022-10-20T04:06:53;831.5;;;-146.1;100.0
45864;BME280;31579;52.354;16.974;2022-10-20T04:07:56;826.2;;;-146.1;100.0
45864;BME280;31579;52.354;16.974;2022-10-20T04:09:00;832.1;;;-146.1;100.0
45864;BME280;31579;52.354;16.974;2022-10-20T04:10:03;804.9;;;-146.1;100.0
45864;BME280;31579;52.354;16.974;2022-10-20T04:11:21;836.2;;;-146.1;100.0
45864;BME280;31579;52.354;16.974;2022-10-20T04:12:24;770.2;;;-146.1;100.0
45864;BME280;31579;52.354;16.974;2022-10-20T04:13:27;763.2;;;-146.1;100.0
45864;BME280;31579;52.354;16.974;2022-10-20T04:14:30;765.3;;;-146.1;100.0
45864;BME280;31579;52.354;16.974;2022-10-20T04:15:34;766.8;;;-146.1;100.0
45864;BME280;31579;52.354;16.974;2022-10-20T04:16:37;768.7;;;-146.1;100.0
45864;BME280;31579;52.354;16.974;2022-10-20T04:17:40;769.0;;;-146.1;100.0
45864;BME280;31579;52.354;16.974;2022-10-20T04:18:43;769.8;;;-146.1;100.0
45864;BME280;31579;52.354;16.974;2022-10-20T04:19:46;770.6;;;-146.1;100.0
45864;BME280;31579;52.354;16.974;2022-10-20T04:20:49;769.5;;;-146.1;100.0
45864;BME280;31579;52.354;16.974;2022-10-20T04:21:52;766.9;;;-146.1;100.0
45864;BME280;31579;52.354;16.974;2022-10-20T04:22:55;765.5;;;-146.1;100.0
45864;BME280;31579;52.354;16.974;2022-10-20T04:23:58;762.6;;;-146.1;100.0
45864;BME280;31579;52.354;16.974;2022-10-20T04:25:02;774.9;;;-146.1;100.0
45864;BME280;31579;52.354;16.974;2022-10-20T04:26:07;750.1;;;-146.1;100.0
45864;BME280;31579;52.354;16.974;2022-10-20T04:27:08;745.7;;;-146.1;100.0
45864;BME280;31579;52.354;16.974;2022-10-20T04:28:11;747.6;;;-146.1;100.0
45864;BME280;31579;52.354;16.974;2022-10-20T04:29:14;746.9;;;-146.1;100.0
45864;BME280;31579;52.354;16.974;2022-10-20T04:30:17;745.3;;;-146.1;100.0
45864;BME280;31579;52.354;16.974;2022-10-20T04:31:20;742.4;;;-146.1;100.0
45864;BME280;31579;52.354;16.974;2022-10-20T04:32:23;740.9;;;-146.1;100.0
45864;BME280;31579;52.354;16.974;2022-10-20T04:33:32;806.6;;;-146.1;100.0
45864;BME280;31579;52.354;16.974;2022-10-20T04:34:35;722.8;;;-146.1;100.0
45864;BME280;31579;52.354;16.974;2022-10-20T04:35:38;714.6;;;-146.1;100.0
45864;BME280;31579;52.354;16.974;2022-10-20T04:36:41;718.1;;;-146.1;100.0
45864;BME280;31579;52.354;16.974;2022-10-20T04:37:44;723.0;;;-146.1;100.0
45864;BME280;31579;52.354;16.974;2022-10-20T04:38:47;728.1;;;-146.1;100.0
45864;BME280;31579;52.354;16.974;2022-10-20T04:39:50;732.2;;;-146.1;100.0
45864;BME280;31579;52.354;16.974;2022-10-20T04:41:56;738.1;;;-146.1;100.0
45864;BME280;31579;52.354;16.974;2022-10-20T04:42:59;740.9;;;-146.1;100.0
45864;BME280;31579;52.354;16.974;2022-10-20T04:44:02;743.3;;;-146.1;100.0
45864;BME280;31579;52.354;16.974;2022-10-20T04:45:05;744.8;;;-146.1;100.0
45864;BME280;31579;52.354;16.974;2022-10-20T04:46:09;746.3;;;-146.1;100.0
45864;BME280;31579;52.354;16.974;2022-10-20T04:47:11;747.6;;;-146.1;100.0
45864;BME280;31579;52.354;16.974;2022-10-20T04:48:15;749.3;;;-146.1;100.0
45864;BME280;31579;52.354;16.974;2022-10-20T04:49:18;751.8;;;-146.1;100.0
45864;BME280;31579;52.354;16.974;2022-10-20T04:50:21;753.9;;;-146.1;100.0
45864;BME280;31579;52.354;16.974;2022-10-20T04:51:24;755.3;;;-146.1;100.0
45864;BME280;31579;52.354;16.974;2022-10-20T04:52:27;754.9;;;-146.1;100.0
45864;BME280;31579;52.354;16.974;2022-10-20T04:53:29;742.2;;;-146.1;100.0
45864;BME280;31579;52.354;16.974;2022-10-20T04:54:32;762.1;;;-146.1;100.0
45864;BME280;31579;52.354;16.974;2022-10-20T04:55:35;766.8;;;-146.1;100.0
45864;BME280;31579;52.354;16.974;2022-10-20T04:56:38;764.1;;;-146.1;100.0
45864;BME280;31579;52.354;16.974;2022-10-20T04:57:42;760.3;;;-146.1;100.0
45864;BME280;31579;52.354;16.974;2022-10-20T04:58:49;770.1;;;-146.1;100.0
45864;BME280;31579;52.354;16.974;2022-10-20T04:59:49;739.0;;;-146.1;100.0
45864;BME280;31579;52.354;16.974;2022-10-20T05:00:52;729.9;;;-146.1;100.0
45864;BME280;31579;52.354;16.974;2022-10-20T05:01:55;726.2;;;-146.1;100.0
45864;BME280;31579;52.354;16.974;2022-10-20T05:02:58;723.7;;;-146.1;100.0
45864;BME280;31579;52.354;16.974;2022-10-20T05:04:00;712.5;;;-146.1;100.0
45864;BME280;31579;52.354;16.974;2022-10-20T05:05:03;731.5;;;-146.1;100.0
45864;BME280;31579;52.354;16.974;2022-10-20T05:07:09;733.4;;;-146.1;100.0
45864;BME280;31579;52.354;16.974;2022-10-20T05:08:12;729.4;;;-146.1;100.0
45864;BME280;31579;52.354;16.974;2022-10-20T05:09:15;720.8;;;-146.1;100.0
45864;BME280;31579;52.354;16.974;2022-10-20T05:10:18;712.1;;;-146.1;100.0
45864;BME280;31579;52.354;16.974;2022-10-20T05:11:22;703.6;;;-146.1;100.0
45864;BME280;31579;52.354;16.974;2022-10-20T05:12:24;697.3;;;-146.1;100.0
45864;BME280;31579;52.354;16.974;2022-10-20T05:13:28;695.0;;;-146.1;100.0
45864;BME280;31579;52.354;16.974;2022-10-20T05:14:31;686.1;;;-146.1;100.0
45864;BME280;31579;52.354;16.974;2022-10-20T05:15:34;680.8;;;-146.1;100.0
45864;BME280;31579;52.354;16.974;2022-10-20T05:16:37;676.9;;;-146.1;100.0
45864;BME280;31579;52.354;16.974;2022-10-20T05:17:40;672.8;;;-146.1;100.0
45864;BME280;31579;52.354;16.974;2022-10-20T05:18:43;668.9;;;-146.1;100.0
45864;BME280;31579;52.354;16.974;2022-10-20T05:19:46;666.3;;;-146.1;100.0
45864;BME280;31579;52.354;16.974;2022-10-20T05:20:49;662.1;;;-146.1;100.0
45864;BME280;31579;52.354;16.974;2022-10-20T05:21:52;659.3;;;-146.1;100.0
45864;BME280;31579;52.354;16.974;2022-10-20T05:22:55;656.2;;;-146.1;100.0
45864;BME280;31579;52.354;16.974;2022-10-20T05:23:59;653.2;;;-146.1;100.0
45864;BME280;31579;52.354;16.974;2022-10-20T05:25:00;636.0;;;-146.1;100.0
45864;BME280;31579;52.354;16.974;2022-10-20T05:26:04;654.7;;;-146.1;100.0
45864;BME280;31579;52.354;16.974;2022-10-20T05:27:06;656.9;;;-146.1;100.0
45864;BME280;31579;52.354;16.974;2022-10-20T05:28:09;654.3;;;-146.1;100.0
45864;BME280;31579;52.354;16.974;2022-10-20T05:29:12;651.0;;;-146.1;100.0
45864;BME280;31579;52.354;16.974;2022-10-20T05:30:15;648.5;;;-146.1;100.0
45864;BME280;31579;52.354;16.974;2022-10-20T05:32:36;635.4;;;-146.1;100.0
45864;BME280;31579;52.354;16.974;2022-10-20T05:33:42;629.2;;;-146.1;100.0
45864;BME280;31579;52.354;16.974;2022-10-20T05:34:41;631.2;;;-146.1;100.0
45864;BME280;31579;52.354;16.974;2022-10-20T05:35:45;635.8;;;-146.1;100.0
45864;BME280;31579;52.354;16.974;2022-10-20T05:36:48;640.3;;;-146.1;100.0
45864;BME280;31579;52.354;16.974;2022-10-20T05:37:51;644.3;;;-146.1;100.0
45864;BME280;31579;52.354;16.974;2022-10-20T05:38:54;647.6;;;-146.1;100.0
45864;BME280;31579;52.354;16.974;2022-10-20T05:39:56;650.1;;;-146.1;100.0
45864;BME280;31579;52.354;16.974;2022-10-20T05:42:03;656.2;;;-146.1;100.0
45864;BME280;31579;52.354;16.974;2022-10-20T05:43:06;658.7;;;-146.1;100.0
45864;BME280;31579;52.354;16.974;2022-10-20T05:44:10;662.1;;;-146.1;100.0
45864;BME280;31579;52.354;16.974;2022-10-20T05:45:12;664.5;;;-146.1;100.0
45864;BME280;31579;52.354;16.974;2022-10-20T05:46:15;666.9;;;-146.1;100.0
45864;BME280;31579;52.354;16.974;2022-10-20T05:47:19;669.7;;;-146.1;100.0
45864;BME280;31579;52.354;16.974;2022-10-20T05:48:22;672.3;;;-146.1;100.0
45864;BME280;31579;52.354;16.974;2022-10-20T05:49:25;673.9;;;-146.1;100.0
45864;BME280;31579;52.354;16.974;2022-10-20T05:50:29;697.3;;;-146.1;100.0
45864;BME280;31579;52.354;16.974;2022-10-20T05:51:34;667.3;;;-146.1;100.0
45864;BME280;31579;52.354;16.974;2022-10-20T05:52:36;663.9;;;-146.1;100.0
45864;BME280;31579;52.354;16.974;2022-10-20T05:53:39;664.7;;;-146.1;100.0
45864;BME280;31579;52.354;16.974;2022-10-20T05:54:42;665.4;;;-146.1;100.0
45864;BME280;31579;52.354;16.974;2022-10-20T05:55:45;666.1;;;-146.1;100.0
45864;BME280;31579;52.354;16.974;2022-10-20T05:56:48;666.2;;;-146.1;100.0
45864;BME280;31579;52.354;16.974;2022-10-20T05:57:51;666.6;;;-146.1;100.0
45864;BME280;31579;52.354;16.974;2022-10-20T05:58:54;666.1;;;-146.1;100.0
45864;BME280;31579;52.354;16.974;2022-10-20T05:59:57;666.7;;;-146.1;100.0
45864;BME280;31579;52.354;16.974;2022-10-20T06:02:04;663.0;;;-146.1;100.0
45864;BME280;31579;52.354;16.974;2022-10-20T06:03:07;662.9;;;-146.1;100.0
45864;BME280;31579;52.354;16.974;2022-10-20T06:04:10;665.7;;;-146.1;100.0
45864;BME280;31579;52.354;16.974;2022-10-20T06:05:13;669.9;;;-146.1;100.0
45864;BME280;31579;52.354;16.974;2022-10-20T06:06:17;697.0;;;-146.1;100.0
45864;BME280;31579;52.354;16.974;2022-10-20T06:07:21;694.6;;;-146.1;100.0
45864;BME280;31579;52.354;16.974;2022-10-20T06:08:24;666.1;;;-146.1;100.0
45864;BME280;31579;52.354;16.974;2022-10-20T06:09:31;768.4;;;-146.1;100.0
45864;BME280;31579;52.354;16.974;2022-10-20T06:10:35;703.9;;;-146.1;100.0
45864;BME280;31579;52.354;16.974;2022-10-20T06:11:38;685.6;;;-146.1;100.0
45864;BME280;31579;52.354;16.974;2022-10-20T06:12:41;698.4;;;-146.1;100.0
45864;BME280;31579;52.354;16.974;2022-10-20T06:13:45;738.9;;;-146.1;100.0
45864;BME280;31579;52.354;16.974;2022-10-20T06:14:49;751.2;;;-146.1;100.0
45864;BME280;31579;52.354;16.974;2022-10-20T06:15:52;736.9;;;-146.1;100.0
45864;BME280;31579;52.354;16.974;2022-10-20T06:16:56;773.3;;;-146.1;100.0
45864;BME280;31579;52.354;16.974;2022-10-20T06:18:00;784.8;;;-146.1;100.0
45864;BME280;31579;52.354;16.974;2022-10-20T06:19:03;770.0;;;-146.1;100.0
45864;BME280;31579;52.354;16.974;2022-10-20T06:20:07;806.4;;;-146.1;100.0
45864;BME280;31579;52.354;16.974;2022-10-20T06:21:11;792.1;;;-146.1;100.0